sensor_id;sensor_type;location;lat;lon;timestamp;pressure;altitude;pressure_sealevel;temperature;humidity
63281;BME280;49406;51.044;3.766;2022-08-05T00:01:23;101629.38;;;20.04;66.91
63281;BME280;49406;51.044;3.766;2022-08-05T00:03:58;101633.93;;;19.99;67.00
63281;BME280;49406;51.044;3.766;2022-08-05T00:06:32;101646.11;;;19.92;67.39
63281;BME280;49406;51.044;3.766;2022-08-05T00:09:07;101651.33;;;19.89;68.04
63281;BME280;49406;51.044;3.766;2022-08-05T00:11:41;101649.42;;;19.86;67.83
63281;BME280;49406;51.044;3.766;2022-08-05T00:14:16;101655.14;;;19.84;67.83
63281;BME280;49406;51.044;3.766;2022-08-05T00:16:50;101663.63;;;19.85;67.94
63281;BME280;49406;51.044;3.766;2022-08-05T00:19:25;101672.73;;;19.92;67.52
63281;BME280;49406;51.044;3.766;2022-08-05T00:21:59;101679.70;;;19.89;67.54
63281;BME280;49406;51.044;3.766;2022-08-05T00:34:38;101697.71;;;19.84;67.79
63281;BME280;49406;51.044;3.766;2022-08-05T00:37:13;101707.88;;;19.91;67.48
63281;BME280;49406;51.044;3.766;2022-08-05T00:39:48;101713.98;;;19.87;67.68
63281;BME280;49406;51.044;3.766;2022-08-05T00:42:33;101706.60;;;19.84;67.95
63281;BME280;49406;51.044;3.766;2022-08-05T00:45:09;101691.73;;;19.81;68.30
63281;BME280;49406;51.044;3.766;2022-08-05T00:47:44;101686.81;;;19.78;68.29
63281;BME280;49406;51.044;3.766;2022-08-05T00:50:18;101682.10;;;19.73;68.77
63281;BME280;49406;51.044;3.766;2022-08-05T00:52:53;101682.14;;;19.72;68.77
63281;BME280;49406;51.044;3.766;2022-08-05T00:55:27;101676.50;;;19.79;68.99
63281;BME280;49406;51.044;3.766;2022-08-05T00:58:02;101671.09;;;19.74;69.18
63281;BME280;49406;51.044;3.766;2022-08-05T01:00:37;101669.09;;;19.66;69.45
63281;BME280;49406;51.044;3.766;2022-08-05T01:03:12;101657.29;;;19.61;69.72
63281;BME280;49406;51.044;3.766;2022-08-05T01:05:46;101644.60;;;19.56;70.22
63281;BME280;49406;51.044;3.766;2022-08-05T01:18:28;101621.68;;;19.46;70.76
63281;BME280;49406;51.044;3.766;2022-08-05T01:21:19;101614.50;;;19.39;70.85
63281;BME280;49406;51.044;3.766;2022-08-05T01:24:09;101615.59;;;19.39;70.95
63281;BME280;49406;51.044;3.766;2022-08-05T01:26:58;101609.92;;;19.47;70.58
63281;BME280;49406;51.044;3.766;2022-08-05T01:29:37;101612.55;;;19.40;71.37
63281;BME280;49406;51.044;3.766;2022-08-05T01:32:17;101606.48;;;19.31;71.99
63281;BME280;49406;51.044;3.766;2022-08-05T01:34:57;101606.03;;;19.26;72.28
63281;BME280;49406;51.044;3.766;2022-08-05T01:37:36;101599.93;;;19.30;71.90
63281;BME280;49406;51.044;3.766;2022-08-05T01:40:13;101604.61;;;19.25;72.35
63281;BME280;49406;51.044;3.766;2022-08-05T01:42:50;101604.60;;;19.16;72.70
63281;BME280;49406;51.044;3.766;2022-08-05T01:45:26;101613.89;;;19.10;72.76
63281;BME280;49406;51.044;3.766;2022-08-05T01:48:03;101622.59;;;19.09;72.98
63281;BME280;49406;51.044;3.766;2022-08-05T01:50:40;101633.35;;;19.12;72.70
63281;BME280;49406;51.044;3.766;2022-08-05T01:53:16;101638.29;;;19.03;72.85
63281;BME280;49406;51.044;3.766;2022-08-05T01:55:56;101647.41;;;18.96;73.07
63281;BME280;49406;51.044;3.766;2022-08-05T01:58:34;101653.18;;;18.89;73.56
63281;BME280;49406;51.044;3.766;2022-08-05T02:01:09;101663.61;;;18.90;73.23
63281;BME280;49406;51.044;3.766;2022-08-05T02:03:46;101670.14;;;18.92;73.76
63281;BME280;49406;51.044;3.766;2022-08-05T02:06:21;101678.38;;;18.86;73.71
63281;BME280;49406;51.044;3.766;2022-08-05T02:08:56;101683.18;;;18.85;74.10
63281;BME280;49406;51.044;3.766;2022-08-05T02:11:40;101684.45;;;18.84;74.26
63281;BME280;49406;51.044;3.766;2022-08-05T02:14:23;101691.80;;;18.89;73.85
63281;BME280;49406;51.044;3.766;2022-08-05T02:17:06;101696.48;;;18.99;73.64
63281;BME280;49406;51.044;3.766;2022-08-05T02:19:43;101701.98;;;18.98;73.93
63281;BME280;49406;51.044;3.766;2022-08-05T02:22:27;101701.48;;;18.94;73.79
63281;BME280;49406;51.044;3.766;2022-08-05T02:25:07;101705.58;;;18.92;73.90
63281;BME280;49406;51.044;3.766;2022-08-05T02:27:46;101710.70;;;18.94;73.86
63281;BME280;49406;51.044;3.766;2022-08-05T02:30:23;101713.05;;;19.05;73.25
63281;BME280;49406;51.044;3.766;2022-08-05T02:32:59;101710.25;;;19.02;73.35
63281;BME280;49406;51.044;3.766;2022-08-05T02:35:36;101706.05;;;18.97;73.66
63281;BME280;49406;51.044;3.766;2022-08-05T02:38:12;101703.25;;;18.94;73.77
63281;BME280;49406;51.044;3.766;2022-08-05T02:40:47;101702.92;;;18.91;73.59
63281;BME280;49406;51.044;3.766;2022-08-05T02:43:22;101699.88;;;18.95;73.55
63281;BME280;49406;51.044;3.766;2022-08-05T02:45:58;101693.27;;;19.00;73.21
63281;BME280;49406;51.044;3.766;2022-08-05T02:48:34;101685.55;;;18.93;73.46
63281;BME280;49406;51.044;3.766;2022-08-05T02:51:10;101679.45;;;18.86;73.72
63281;BME280;49406;51.044;3.766;2022-08-05T02:53:46;101676.32;;;18.81;73.69
63281;BME280;49406;51.044;3.766;2022-08-05T02:56:22;101678.27;;;18.79;74.06
63281;BME280;49406;51.044;3.766;2022-08-05T02:58:58;101675.26;;;18.82;73.75
63281;BME280;49406;51.044;3.766;2022-08-05T03:01:33;101683.13;;;18.74;73.89
63281;BME280;49406;51.044;3.766;2022-08-05T03:04:11;101687.48;;;18.65;74.06
63281;BME280;49406;51.044;3.766;2022-08-05T03:06:47;101694.08;;;18.59;74.11
63281;BME280;49406;51.044;3.766;2022-08-05T03:09:22;101702.80;;;18.55;74.32
63281;BME280;49406;51.044;3.766;2022-08-05T03:11:56;101702.58;;;18.59;74.18
63281;BME280;49406;51.044;3.766;2022-08-05T03:14:31;101696.17;;;18.63;74.17
63281;BME280;49406;51.044;3.766;2022-08-05T03:17:05;101692.13;;;18.59;74.28
63281;BME280;49406;51.044;3.766;2022-08-05T03:19:41;101694.86;;;18.53;74.44
63281;BME280;49406;51.044;3.766;2022-08-05T03:22:15;101680.39;;;18.50;74.48
63281;BME280;49406;51.044;3.766;2022-08-05T03:24:51;101680.23;;;18.46;74.55
63281;BME280;49406;51.044;3.766;2022-08-05T03:27:26;101676.31;;;18.50;74.36
63281;BME280;49406;51.044;3.766;2022-08-05T03:30:01;101682.69;;;18.49;74.24
63281;BME280;49406;51.044;3.766;2022-08-05T03:32:36;101684.05;;;18.38;74.65
63281;BME280;49406;51.044;3.766;2022-08-05T03:35:13;101685.00;;;18.31;74.91
63281;BME280;49406;51.044;3.766;2022-08-05T03:37:49;101680.05;;;18.31;74.93
63281;BME280;49406;51.044;3.766;2022-08-05T03:40:24;101676.63;;;18.37;74.45
63281;BME280;49406;51.044;3.766;2022-08-05T03:42:58;101669.77;;;18.30;74.51
63281;BME280;49406;51.044;3.766;2022-08-05T03:45:33;101666.70;;;18.21;74.90
63281;BME280;49406;51.044;3.766;2022-08-05T03:48:07;101666.23;;;18.15;75.23
63281;BME280;49406;51.044;3.766;2022-08-05T03:50:44;101667.70;;;18.09;75.23
63281;BME280;49406;51.044;3.766;2022-08-05T03:53:28;101667.51;;;18.10;75.13
63281;BME280;49406;51.044;3.766;2022-08-05T03:56:08;101667.92;;;18.05;75.10
63281;BME280;49406;51.044;3.766;2022-08-05T03:58:46;101663.06;;;17.93;75.69
63281;BME280;49406;51.044;3.766;2022-08-05T04:01:23;101658.56;;;17.85;76.17
63281;BME280;49406;51.044;3.766;2022-08-05T04:04:00;101657.89;;;17.80;76.29
63281;BME280;49406;51.044;3.766;2022-08-05T04:06:36;101657.69;;;17.84;76.00
63281;BME280;49406;51.044;3.766;2022-08-05T04:09:11;101660.21;;;17.77;76.06
63281;BME280;49406;51.044;3.766;2022-08-05T04:11:46;101663.66;;;17.62;76.73
63281;BME280;49406;51.044;3.766;2022-08-05T04:14:21;101663.41;;;17.50;77.22
63281;BME280;49406;51.044;3.766;2022-08-05T04:16:56;101663.83;;;17.39;77.53
63281;BME280;49406;51.044;3.766;2022-08-05T04:19:31;101668.30;;;17.33;77.97
63281;BME280;49406;51.044;3.766;2022-08-05T04:22:14;101666.16;;;17.35;77.66
63281;BME280;49406;51.044;3.766;2022-08-05T04:24:49;101670.78;;;17.30;77.91
63281;BME280;49406;51.044;3.766;2022-08-05T04:27:23;101672.27;;;17.19;78.27
63281;BME280;49406;51.044;3.766;2022-08-05T04:29:58;101671.79;;;17.10;79.09
63281;BME280;49406;51.044;3.766;2022-08-05T04:32:32;101676.58;;;17.06;79.25
63281;BME280;49406;51.044;3.766;2022-08-05T04:35:08;101676.42;;;17.02;79.08
63281;BME280;49406;51.044;3.766;2022-08-05T04:37:43;101675.69;;;17.07;78.83
63281;BME280;49406;51.044;3.766;2022-08-05T04:40:17;101674.67;;;17.00;79.07
63281;BME280;49406;51.044;3.766;2022-08-05T04:42:51;101677.89;;;16.90;79.54
63281;BME280;49406;51.044;3.766;2022-08-05T04:45:26;101680.40;;;16.86;79.74
63281;BME280;49406;51.044;3.766;2022-08-05T04:48:06;101681.30;;;16.82;79.92
63281;BME280;49406;51.044;3.766;2022-08-05T04:50:42;101681.12;;;16.81;80.14
63281;BME280;49406;51.044;3.766;2022-08-05T04:53:17;101686.03;;;16.89;79.92
63281;BME280;49406;51.044;3.766;2022-08-05T04:55:52;101689.57;;;16.88;80.01
63281;BME280;49406;51.044;3.766;2022-08-05T04:58:26;101697.02;;;16.80;80.09
63281;BME280;49406;51.044;3.766;2022-08-05T05:01:01;101690.85;;;16.73;80.37
63281;BME280;49406;51.044;3.766;2022-08-05T05:03:35;101693.35;;;16.70;80.64
63281;BME280;49406;51.044;3.766;2022-08-05T05:06:11;101696.15;;;16.73;80.71
63281;BME280;49406;51.044;3.766;2022-08-05T05:08:46;101695.60;;;16.82;80.40
63281;BME280;49406;51.044;3.766;2022-08-05T05:11:20;101701.61;;;16.81;80.78
63281;BME280;49406;51.044;3.766;2022-08-05T05:13:55;101702.30;;;16.79;80.94
63281;BME280;49406;51.044;3.766;2022-08-05T05:16:30;101703.02;;;16.80;81.21
63281;BME280;49406;51.044;3.766;2022-08-05T05:19:04;101705.98;;;16.89;81.20
63281;BME280;49406;51.044;3.766;2022-08-05T05:21:38;101711.05;;;17.03;80.97
63281;BME280;49406;51.044;3.766;2022-08-05T05:24:13;101711.72;;;17.08;81.02
63281;BME280;49406;51.044;3.766;2022-08-05T05:26:48;101710.99;;;17.15;81.54
63281;BME280;49406;51.044;3.766;2022-08-05T05:29:23;101710.93;;;17.24;81.47
63281;BME280;49406;51.044;3.766;2022-08-05T05:31:57;101705.06;;;17.32;81.28
63281;BME280;49406;51.044;3.766;2022-08-05T05:37:06;101720.95;;;17.61;80.77
63281;BME280;49406;51.044;3.766;2022-08-05T05:39:40;101725.36;;;17.63;80.94
63281;BME280;49406;51.044;3.766;2022-08-05T05:42:15;101726.95;;;17.68;81.08
63281;BME280;49406;51.044;3.766;2022-08-05T05:44:50;101731.32;;;17.77;81.06
63281;BME280;49406;51.044;3.766;2022-08-05T05:47:24;101743.01;;;17.97;81.17
63281;BME280;49406;51.044;3.766;2022-08-05T05:49:59;101746.17;;;18.40;80.72
63281;BME280;49406;51.044;3.766;2022-08-05T05:52:33;101749.99;;;18.97;79.86
63281;BME280;49406;51.044;3.766;2022-08-05T05:55:10;101759.50;;;19.57;77.82
63281;BME280;49406;51.044;3.766;2022-08-05T05:57:46;101761.18;;;20.10;75.91
63281;BME280;49406;51.044;3.766;2022-08-05T06:00:21;101761.44;;;20.57;73.41
63281;BME280;49406;51.044;3.766;2022-08-05T06:02:56;101761.12;;;20.83;71.35
63281;BME280;49406;51.044;3.766;2022-08-05T06:05:31;101764.74;;;21.06;70.40
63281;BME280;49406;51.044;3.766;2022-08-05T06:08:06;101764.93;;;21.40;70.03
63281;BME280;49406;51.044;3.766;2022-08-05T06:10:40;101774.54;;;21.79;68.67
63281;BME280;49406;51.044;3.766;2022-08-05T06:13:14;101781.86;;;22.08;66.90
63281;BME280;49406;51.044;3.766;2022-08-05T06:15:49;101779.30;;;22.26;65.35
63281;BME280;49406;51.044;3.766;2022-08-05T06:18:23;101781.42;;;22.33;63.83
63281;BME280;49406;51.044;3.766;2022-08-05T06:20:58;101787.31;;;22.32;63.84
63281;BME280;49406;51.044;3.766;2022-08-05T06:23:33;101791.95;;;22.39;62.98
63281;BME280;49406;51.044;3.766;2022-08-05T06:26:07;101791.30;;;22.57;62.80
63281;BME280;49406;51.044;3.766;2022-08-05T06:28:42;101786.55;;;22.88;62.17
63281;BME280;49406;51.044;3.766;2022-08-05T06:31:17;101794.02;;;23.15;61.22
63281;BME280;49406;51.044;3.766;2022-08-05T06:33:52;101795.30;;;23.32;60.22
63281;BME280;49406;51.044;3.766;2022-08-05T06:36:26;101797.13;;;23.30;59.79
63281;BME280;49406;51.044;3.766;2022-08-05T06:39:01;101800.54;;;23.29;59.75
63281;BME280;49406;51.044;3.766;2022-08-05T06:41:36;101801.17;;;23.32;59.44
63281;BME280;49406;51.044;3.766;2022-08-05T06:44:11;101802.54;;;23.28;59.69
63281;BME280;49406;51.044;3.766;2022-08-05T06:46:45;101805.92;;;23.46;59.82
63281;BME280;49406;51.044;3.766;2022-08-05T06:49:20;101803.74;;;23.53;58.51
63281;BME280;49406;51.044;3.766;2022-08-05T06:51:55;101803.63;;;23.58;58.38
63281;BME280;49406;51.044;3.766;2022-08-05T06:54:29;101806.23;;;23.66;58.13
63281;BME280;49406;51.044;3.766;2022-08-05T06:57:04;101802.92;;;23.81;57.97
63281;BME280;49406;51.044;3.766;2022-08-05T06:59:39;101806.92;;;23.90;57.47
63281;BME280;49406;51.044;3.766;2022-08-05T07:02:14;101810.48;;;24.01;56.91
63281;BME280;49406;51.044;3.766;2022-08-05T07:04:48;101809.84;;;23.99;56.55
63281;BME280;49406;51.044;3.766;2022-08-05T07:07:23;101815.39;;;24.10;56.33
63281;BME280;49406;51.044;3.766;2022-08-05T07:09:57;101822.49;;;24.11;55.63
63281;BME280;49406;51.044;3.766;2022-08-05T07:12:32;101820.63;;;24.19;55.64
63281;BME280;49406;51.044;3.766;2022-08-05T07:15:24;101827.92;;;24.31;54.94
63281;BME280;49406;51.044;3.766;2022-08-05T07:18:16;101832.64;;;24.40;54.47
63281;BME280;49406;51.044;3.766;2022-08-05T07:24:16;101844.81;;;24.45;52.82
63281;BME280;49406;51.044;3.766;2022-08-05T07:26:51;101840.73;;;24.16;53.11
63281;BME280;49406;51.044;3.766;2022-08-05T07:29:26;101848.29;;;24.03;53.41
63281;BME280;49406;51.044;3.766;2022-08-05T07:32:00;101851.70;;;23.86;53.66
63281;BME280;49406;51.044;3.766;2022-08-05T07:34:35;101858.89;;;23.54;53.93
63281;BME280;49406;51.044;3.766;2022-08-05T07:37:09;101865.62;;;23.25;54.36
63281;BME280;49406;51.044;3.766;2022-08-05T07:39:44;101871.83;;;23.01;54.93
63281;BME280;49406;51.044;3.766;2022-08-05T07:42:18;101874.39;;;22.77;55.00
63281;BME280;49406;51.044;3.766;2022-08-05T07:44:53;101879.58;;;22.56;55.74
63281;BME280;49406;51.044;3.766;2022-08-05T07:47:27;101885.65;;;22.83;55.69
63281;BME280;49406;51.044;3.766;2022-08-05T07:50:02;101888.64;;;23.44;54.40
63281;BME280;49406;51.044;3.766;2022-08-05T07:52:40;101888.46;;;23.75;50.99
63281;BME280;49406;51.044;3.766;2022-08-05T07:55:15;101894.05;;;23.84;50.51
63281;BME280;49406;51.044;3.766;2022-08-05T07:57:49;101897.69;;;23.71;50.16
63281;BME280;49406;51.044;3.766;2022-08-05T08:00:24;101898.70;;;23.41;51.15
63281;BME280;49406;51.044;3.766;2022-08-05T08:02:59;101903.11;;;23.05;51.28
63281;BME280;49406;51.044;3.766;2022-08-05T08:05:34;101907.62;;;22.67;52.21
63281;BME280;49406;51.044;3.766;2022-08-05T08:08:08;101912.48;;;22.36;52.71
63281;BME280;49406;51.044;3.766;2022-08-05T08:10:43;101915.21;;;22.10;53.61
63281;BME280;49406;51.044;3.766;2022-08-05T08:13:17;101916.90;;;21.89;54.05
63281;BME280;49406;51.044;3.766;2022-08-05T08:15:52;101913.06;;;21.61;54.66
63281;BME280;49406;51.044;3.766;2022-08-05T08:18:26;101917.30;;;21.53;55.54
63281;BME280;49406;51.044;3.766;2022-08-05T08:21:01;101920.20;;;21.85;54.73
63281;BME280;49406;51.044;3.766;2022-08-05T08:23:36;101920.79;;;22.23;53.53
63281;BME280;49406;51.044;3.766;2022-08-05T08:26:10;101922.63;;;22.73;52.21
63281;BME280;49406;51.044;3.766;2022-08-05T08:28:45;101919.33;;;23.05;50.86
63281;BME280;49406;51.044;3.766;2022-08-05T08:31:19;101922.73;;;23.25;50.20
63281;BME280;49406;51.044;3.766;2022-08-05T08:33:54;101924.72;;;23.49;49.23
63281;BME280;49406;51.044;3.766;2022-08-05T08:36:28;101923.05;;;23.57;48.75
63281;BME280;49406;51.044;3.766;2022-08-05T08:39:03;101922.23;;;23.80;48.29
63281;BME280;49406;51.044;3.766;2022-08-05T08:41:39;101925.70;;;24.07;47.17
63281;BME280;49406;51.044;3.766;2022-08-05T08:44:16;101930.02;;;24.40;45.37
63281;BME280;49406;51.044;3.766;2022-08-05T08:46:51;101932.63;;;24.70;44.04
63281;BME280;49406;51.044;3.766;2022-08-05T08:49:26;101937.31;;;24.64;43.84
63281;BME280;49406;51.044;3.766;2022-08-05T08:52:07;101940.35;;;24.36;42.54
63281;BME280;49406;51.044;3.766;2022-08-05T08:54:45;101942.27;;;24.03;44.61
63281;BME280;49406;51.044;3.766;2022-08-05T08:57:20;101944.29;;;23.95;45.70
63281;BME280;49406;51.044;3.766;2022-08-05T08:59:55;101954.16;;;24.05;45.83
63281;BME280;49406;51.044;3.766;2022-08-05T09:02:32;101953.36;;;23.84;45.67
63281;BME280;49406;51.044;3.766;2022-08-05T09:05:08;101956.31;;;23.68;46.39
63281;BME280;49406;51.044;3.766;2022-08-05T09:07:44;101959.96;;;23.52;47.02
63281;BME280;49406;51.044;3.766;2022-08-05T09:10:20;101966.05;;;23.39;46.84
63281;BME280;49406;51.044;3.766;2022-08-05T09:12:55;101964.81;;;23.31;46.64
63281;BME280;49406;51.044;3.766;2022-08-05T09:15:30;101966.69;;;23.35;46.45
63281;BME280;49406;51.044;3.766;2022-08-05T09:18:07;101970.09;;;23.47;46.51
63281;BME280;49406;51.044;3.766;2022-08-05T09:20:42;101971.89;;;23.60;46.76
63281;BME280;49406;51.044;3.766;2022-08-05T09:23:19;101973.92;;;23.71;46.55
63281;BME280;49406;51.044;3.766;2022-08-05T09:26:06;101970.09;;;23.86;46.36
63281;BME280;49406;51.044;3.766;2022-08-05T09:28:41;101976.18;;;24.09;45.88
63281;BME280;49406;51.044;3.766;2022-08-05T09:31:16;101971.70;;;24.22;44.64
63281;BME280;49406;51.044;3.766;2022-08-05T09:33:52;101975.77;;;24.46;43.96
63281;BME280;49406;51.044;3.766;2022-08-05T09:36:39;101985.05;;;24.63;42.01
63281;BME280;49406;51.044;3.766;2022-08-05T09:39:14;101982.94;;;24.74;41.62
63281;BME280;49406;51.044;3.766;2022-08-05T09:42:00;101982.90;;;25.07;42.08
63281;BME280;49406;51.044;3.766;2022-08-05T09:44:38;101990.59;;;25.54;41.01
63281;BME280;49406;51.044;3.766;2022-08-05T09:47:14;101991.56;;;25.91;40.15
63281;BME280;49406;51.044;3.766;2022-08-05T09:49:50;101994.85;;;25.65;39.28
63281;BME280;49406;51.044;3.766;2022-08-05T09:52:26;102002.11;;;25.22;39.97
63281;BME280;49406;51.044;3.766;2022-08-05T09:55:03;102000.62;;;24.74;41.59
63281;BME280;49406;51.044;3.766;2022-08-05T09:57:39;102001.80;;;24.25;43.21
63281;BME280;49406;51.044;3.766;2022-08-05T10:00:17;102008.86;;;23.85;44.07
63281;BME280;49406;51.044;3.766;2022-08-05T10:02:53;102008.05;;;23.89;44.36
63281;BME280;49406;51.044;3.766;2022-08-05T10:05:28;102012.52;;;23.82;44.49
63281;BME280;49406;51.044;3.766;2022-08-05T10:08:04;102009.58;;;23.98;44.45
63281;BME280;49406;51.044;3.766;2022-08-05T10:10:46;102011.38;;;24.15;44.99
63281;BME280;49406;51.044;3.766;2022-08-05T10:13:29;102012.66;;;24.20;45.56
63281;BME280;49406;51.044;3.766;2022-08-05T10:16:04;102011.84;;;24.36;45.44
63281;BME280;49406;51.044;3.766;2022-08-05T10:18:39;102017.54;;;24.55;44.77
63281;BME280;49406;51.044;3.766;2022-08-05T10:21:14;102015.89;;;24.72;44.43
63281;BME280;49406;51.044;3.766;2022-08-05T10:23:48;102023.00;;;24.90;43.36
63281;BME280;49406;51.044;3.766;2022-08-05T10:26:23;102024.78;;;25.02;42.85
63281;BME280;49406;51.044;3.766;2022-08-05T10:28:58;102019.36;;;25.24;42.95
63281;BME280;49406;51.044;3.766;2022-08-05T10:31:33;102019.90;;;25.45;42.30
63281;BME280;49406;51.044;3.766;2022-08-05T10:34:08;102020.09;;;25.55;41.58
63281;BME280;49406;51.044;3.766;2022-08-05T10:36:43;102026.67;;;25.09;41.37
63281;BME280;49406;51.044;3.766;2022-08-05T10:39:23;102028.80;;;24.49;42.46
63281;BME280;49406;51.044;3.766;2022-08-05T10:42:02;102029.89;;;24.05;43.63
63281;BME280;49406;51.044;3.766;2022-08-05T10:44:44;102025.86;;;24.15;43.97
63281;BME280;49406;51.044;3.766;2022-08-05T10:47:19;102033.52;;;24.74;43.04
63281;BME280;49406;51.044;3.766;2022-08-05T10:50:05;102038.77;;;25.00;42.17
63281;BME280;49406;51.044;3.766;2022-08-05T10:52:45;102042.21;;;25.21;42.07
63281;BME280;49406;51.044;3.766;2022-08-05T10:55:26;102043.02;;;25.44;41.21
63281;BME280;49406;51.044;3.766;2022-08-05T10:58:10;102050.77;;;25.22;40.34
63281;BME280;49406;51.044;3.766;2022-08-05T11:00:47;102055.93;;;24.55;41.20
63281;BME280;49406;51.044;3.766;2022-08-05T11:03:22;102060.59;;;24.00;42.24
63281;BME280;49406;51.044;3.766;2022-08-05T11:06:13;102062.27;;;23.92;42.42
63281;BME280;49406;51.044;3.766;2022-08-05T11:11:56;102073.55;;;24.52;40.43
63281;BME280;49406;51.044;3.766;2022-08-05T11:14:32;102073.89;;;24.65;40.14
63281;BME280;49406;51.044;3.766;2022-08-05T11:17:30;102080.55;;;24.81;39.99
63281;BME280;49406;51.044;3.766;2022-08-05T11:20:30;102088.06;;;24.86;39.23
63281;BME280;49406;51.044;3.766;2022-08-05T11:23:26;102081.10;;;24.85;38.82
63281;BME280;49406;51.044;3.766;2022-08-05T11:26:08;102088.56;;;24.93;39.26
63281;BME280;49406;51.044;3.766;2022-08-05T11:28:46;102089.83;;;25.15;38.62
63281;BME280;49406;51.044;3.766;2022-08-05T11:31:29;102089.36;;;25.25;37.09
63281;BME280;49406;51.044;3.766;2022-08-05T11:34:08;102092.83;;;25.27;37.03
63281;BME280;49406;51.044;3.766;2022-08-05T11:36:48;102095.37;;;25.27;37.79
63281;BME280;49406;51.044;3.766;2022-08-05T11:39:49;102094.97;;;25.38;38.47
63281;BME280;49406;51.044;3.766;2022-08-05T11:42:24;102103.66;;;25.61;37.06
63281;BME280;49406;51.044;3.766;2022-08-05T11:45:04;102107.77;;;25.25;37.04
63281;BME280;49406;51.044;3.766;2022-08-05T11:47:38;102105.20;;;25.22;37.37
63281;BME280;49406;51.044;3.766;2022-08-05T11:50:13;102101.08;;;25.32;37.01
63281;BME280;49406;51.044;3.766;2022-08-05T11:52:48;102105.23;;;25.42;36.92
63281;BME280;49406;51.044;3.766;2022-08-05T11:55:23;102103.36;;;25.49;36.91
63281;BME280;49406;51.044;3.766;2022-08-05T11:57:57;102103.83;;;25.62;36.39
63281;BME280;49406;51.044;3.766;2022-08-05T12:00:32;102109.33;;;25.85;36.89
63281;BME280;49406;51.044;3.766;2022-08-05T12:03:18;102113.79;;;26.10;35.89
63281;BME280;49406;51.044;3.766;2022-08-05T12:05:54;102110.52;;;26.21;35.83
63281;BME280;49406;51.044;3.766;2022-08-05T12:08:31;102113.57;;;26.11;35.53
63281;BME280;49406;51.044;3.766;2022-08-05T12:11:08;102118.46;;;25.99;35.81
63281;BME280;49406;51.044;3.766;2022-08-05T12:13:53;102110.73;;;25.86;35.31
63281;BME280;49406;51.044;3.766;2022-08-05T12:16:31;102114.64;;;25.60;36.15
63281;BME280;49406;51.044;3.766;2022-08-05T12:19:07;102123.23;;;25.39;36.83
63281;BME280;49406;51.044;3.766;2022-08-05T12:21:48;102122.65;;;25.40;37.60
63281;BME280;49406;51.044;3.766;2022-08-05T12:24:23;102129.23;;;25.25;37.11
63281;BME280;49406;51.044;3.766;2022-08-05T12:26:57;102132.30;;;24.79;37.19
63281;BME280;49406;51.044;3.766;2022-08-05T12:29:34;102133.53;;;24.67;37.39
63281;BME280;49406;51.044;3.766;2022-08-05T12:32:08;102138.56;;;24.90;36.77
63281;BME280;49406;51.044;3.766;2022-08-05T12:34:43;102141.92;;;24.92;36.70
63281;BME280;49406;51.044;3.766;2022-08-05T12:37:18;102140.09;;;24.87;37.02
63281;BME280;49406;51.044;3.766;2022-08-05T12:39:52;102151.31;;;24.59;37.79
63281;BME280;49406;51.044;3.766;2022-08-05T12:42:30;102153.34;;;24.32;38.61
63281;BME280;49406;51.044;3.766;2022-08-05T12:45:07;102150.77;;;24.41;38.45
63281;BME280;49406;51.044;3.766;2022-08-05T12:47:41;102151.46;;;24.54;38.38
63281;BME280;49406;51.044;3.766;2022-08-05T12:50:17;102156.00;;;24.76;38.55
63281;BME280;49406;51.044;3.766;2022-08-05T12:52:58;102153.06;;;25.02;37.35
63281;BME280;49406;51.044;3.766;2022-08-05T12:55:32;102155.27;;;25.00;36.73
63281;BME280;49406;51.044;3.766;2022-08-05T12:58:07;102161.65;;;24.83;36.35
63281;BME280;49406;51.044;3.766;2022-08-05T13:00:56;102162.38;;;24.89;36.54
63281;BME280;49406;51.044;3.766;2022-08-05T13:03:31;102172.45;;;24.88;35.99
63281;BME280;49406;51.044;3.766;2022-08-05T13:06:10;102178.94;;;24.86;35.72
63281;BME280;49406;51.044;3.766;2022-08-05T13:08:46;102180.73;;;24.86;35.95
63281;BME280;49406;51.044;3.766;2022-08-05T13:11:21;102181.73;;;24.76;36.59
63281;BME280;49406;51.044;3.766;2022-08-05T13:13:58;102190.19;;;24.80;36.91
63281;BME280;49406;51.044;3.766;2022-08-05T13:16:33;102190.64;;;24.77;36.80
63281;BME280;49406;51.044;3.766;2022-08-05T13:19:23;102187.90;;;24.55;36.98
63281;BME280;49406;51.044;3.766;2022-08-05T13:21:58;102192.55;;;24.48;37.17
63281;BME280;49406;51.044;3.766;2022-08-05T13:24:32;102200.05;;;24.49;37.13
63281;BME280;49406;51.044;3.766;2022-08-05T13:27:07;102198.58;;;24.63;36.55
63281;BME280;49406;51.044;3.766;2022-08-05T13:29:41;102199.65;;;24.81;36.30
63281;BME280;49406;51.044;3.766;2022-08-05T13:32:16;102203.55;;;24.82;35.80
63281;BME280;49406;51.044;3.766;2022-08-05T13:34:51;102202.70;;;24.44;36.28
63281;BME280;49406;51.044;3.766;2022-08-05T13:37:26;102214.41;;;24.07;37.20
63281;BME280;49406;51.044;3.766;2022-08-05T13:40:01;102217.52;;;23.69;38.14
63281;BME280;49406;51.044;3.766;2022-08-05T13:42:36;102224.47;;;23.38;38.59
63281;BME280;49406;51.044;3.766;2022-08-05T13:45:13;102229.73;;;23.11;39.12
63281;BME280;49406;51.044;3.766;2022-08-05T13:47:47;102232.89;;;22.97;39.37
63281;BME280;49406;51.044;3.766;2022-08-05T13:50:22;102239.71;;;22.87;39.53
63281;BME280;49406;51.044;3.766;2022-08-05T13:52:56;102242.08;;;22.84;39.85
63281;BME280;49406;51.044;3.766;2022-08-05T13:55:31;102239.92;;;22.86;39.92
63281;BME280;49406;51.044;3.766;2022-08-05T13:58:05;102242.23;;;22.85;39.79
63281;BME280;49406;51.044;3.766;2022-08-05T14:00:39;102243.77;;;22.89;39.67
63281;BME280;49406;51.044;3.766;2022-08-05T14:03:14;102243.20;;;23.07;39.72
63281;BME280;49406;51.044;3.766;2022-08-05T14:05:48;102243.27;;;23.43;38.81
63281;BME280;49406;51.044;3.766;2022-08-05T14:08:23;102245.13;;;23.72;37.99